Time;durP1;ratioP1;P1;durP2;ratioP2;P2;SDS_P1;SDS_P2;PMS_P1;PMS_P2;Temp;Humidity;BMP_temperature;BMP_pressure;BME280_temperature;BME280_humidity;BME280_pressure;Samples;Min_cycle;Max_cycle;Signal;HPM_P1;HPM_P2
2023/01/12 00:02:19;;;;;;;4.00;1.30;;;18.90;67.90;;;;;;4546134;31;20257;-68
2023/01/12 00:04:45;;;;;;;4.03;1.50;;;18.90;67.90;;;;;;4563033;31;20562;-68
2023/01/12 00:07:13;;;;;;;4.38;1.63;;;18.80;67.90;;;;;;4561525;31;20142;-68
2023/01/12 00:09:39;;;;;;;3.95;1.33;;;18.80;67.90;;;;;;4562360;31;20155;-69
2023/01/12 00:12:08;;;;;;;5.28;1.45;;;18.80;67.90;;;;;;4541423;31;20064;-69
2023/01/12 00:14:35;;;;;;;4.55;1.67;;;18.80;67.90;;;;;;4559298;31;20143;-68
2023/01/12 00:17:02;;;;;;;5.07;1.30;;;18.80;67.90;;;;;;4542590;31;20143;-68
2023/01/12 00:19:30;;;;;;;5.38;1.45;;;18.80;67.90;;;;;;4557368;31;20777;-69
2023/01/12 00:22:08;;;;;;;4.80;1.50;;;18.80;67.90;;;;;;4555045;31;20131;-69
2023/01/12 00:24:39;;;;;;;4.60;1.38;;;18.80;67.90;;;;;;4554028;31;20142;-69
2023/01/12 00:27:07;;;;;;;7.47;2.00;;;18.80;68.00;;;;;;4552497;31;20178;-68
2023/01/12 00:29:35;;;;;;;4.32;1.50;;;18.80;68.00;;;;;;4555874;31;20535;-68
2023/01/12 00:32:01;;;;;;;5.53;1.70;;;18.70;67.90;;;;;;4555660;31;20128;-69
2023/01/12 00:34:27;;;;;;;3.72;1.35;;;18.70;67.90;;;;;;4539417;31;20123;-69
2023/01/12 00:36:53;;;;;;;6.95;1.75;;;18.70;67.90;;;;;;4538537;31;20139;-68
2023/01/12 00:39:20;;;;;;;7.05;1.45;;;18.70;67.90;;;;;;4536596;31;20119;-68
2023/01/12 00:47:16;;;;;;;4.05;1.42;;;18.60;67.80;;;;;;4543444;31;20204;-68
2023/01/12 00:49:42;;;;;;;4.15;1.38;;;18.60;67.80;;;;;;4545933;31;20135;-69
2023/01/12 00:52:11;;;;;;;4.85;1.38;;;18.60;67.80;;;;;;4539171;31;20188;-68
2023/01/12 00:54:39;;;;;;;4.15;1.33;;;18.60;67.80;;;;;;4559475;31;20184;-68
2023/01/12 00:57:05;;;;;;;5.60;1.20;;;18.60;67.70;;;;;;4538701;31;20147;-68
2023/01/12 00:59:31;;;;;;;6.05;1.63;;;18.60;67.80;;;;;;4561418;31;20151;-68
2023/01/12 01:01:57;;;;;;;5.88;1.35;;;18.60;67.90;;;;;;4560483;31;20218;-68
2023/01/12 01:04:23;;;;;;;5.13;1.58;;;18.60;67.90;;;;;;4540575;31;20134;-68
2023/01/12 01:06:49;;;;;;;2.85;1.38;;;18.60;67.90;;;;;;4559591;31;20135;-69
2023/01/12 01:09:15;;;;;;;4.00;1.30;;;18.60;68.00;;;;;;4561585;31;20618;-68
2023/01/12 01:11:42;;;;;;;4.00;1.10;;;18.60;68.00;;;;;;4541030;31;20174;-68
2023/01/12 01:14:07;;;;;;;2.47;1.10;;;18.60;68.00;;;;;;4561226;31;20449;-68
2023/01/12 01:16:34;;;;;;;6.72;1.95;;;18.60;68.10;;;;;;4539324;31;20094;-69
2023/01/12 01:19:01;;;;;;;4.30;1.70;;;18.60;68.10;;;;;;4554542;31;20147;-69
2023/01/12 01:21:27;;;;;;;5.43;1.50;;;18.50;68.00;;;;;;4557253;31;20115;-68
2023/01/12 01:23:53;;;;;;;4.35;1.30;;;18.50;68.10;;;;;;4541174;31;20193;-68
2023/01/12 01:26:21;;;;;;;4.13;1.27;;;18.50;68.00;;;;;;4529154;31;20185;-69
2023/01/12 01:28:47;;;;;;;6.20;1.45;;;18.50;68.10;;;;;;4552199;31;20134;-69
2023/01/12 01:31:24;;;;;;;3.67;1.40;;;18.50;68.20;;;;;;4523919;31;20244;-69
2023/01/12 01:33:50;;;;;;;4.72;1.40;;;18.50;68.10;;;;;;4552898;31;20183;-68
2023/01/12 01:36:17;;;;;;;4.93;1.33;;;18.50;68.20;;;;;;4537867;31;20128;-68
2023/01/12 01:38:44;;;;;;;3.85;1.02;;;18.40;68.10;;;;;;4551375;31;20134;-69
2023/01/12 01:41:19;;;;;;;4.10;1.45;;;18.40;68.20;;;;;;4553676;31;20139;-69
2023/01/12 01:43:47;;;;;;;2.55;0.98;;;18.40;68.20;;;;;;4557823;31;20141;-69
2023/01/12 01:46:20;;;;;;;3.75;1.38;;;18.40;68.20;;;;;;4554986;31;20192;-69
2023/01/12 01:48:46;;;;;;;4.53;1.20;;;18.40;68.20;;;;;;4555850;31;20134;-68
2023/01/12 01:51:15;;;;;;;4.55;1.60;;;18.40;68.20;;;;;;4541886;31;20492;-68
2023/01/12 01:53:44;;;;;;;2.92;1.20;;;18.40;68.20;;;;;;4537164;31;20208;-68
2023/01/12 01:56:14;;;;;;;3.78;1.25;;;18.40;68.20;;;;;;4553436;31;20286;-68
2023/01/12 01:58:47;;;;;;;3.50;1.02;;;18.40;69.10;;;;;;4554176;31;20139;-68
2023/01/12 02:01:13;;;;;;;3.35;1.25;;;18.40;68.20;;;;;;4537158;31;20128;-68
2023/01/12 02:03:39;;;;;;;3.60;1.20;;;18.40;68.20;;;;;;4546527;31;20091;-68
2023/01/12 02:06:07;;;;;;;4.60;1.50;;;18.30;68.20;;;;;;4553076;31;20120;-68
2023/01/12 02:08:51;;;;;;;4.35;1.38;;;18.30;68.30;;;;;;4546190;31;20584;-69
2023/01/12 02:17:34;;;;;;;4.03;1.25;;;18.30;68.30;;;;;;4538467;31;20138;-68
2023/01/12 02:20:33;;;;;;;4.25;1.67;;;18.30;68.30;;;;;;4559759;31;20642;-68
2023/01/12 02:23:47;;;;;;;2.97;0.85;;;18.30;68.30;;;;;;4554270;31;20224;-68
2023/01/12 02:26:28;;;;;;;4.88;1.60;;;18.30;68.30;;;;;;4554076;31;20127;-68
2023/01/12 02:29:25;;;;;;;3.90;1.30;;;18.30;68.40;;;;;;4548736;31;20239;-68
2023/01/12 02:31:53;;;;;;;3.80;1.30;;;18.20;68.20;;;;;;4545586;31;20131;-68
2023/01/12 02:34:28;;;;;;;4.07;1.33;;;18.20;68.30;;;;;;4551828;31;20142;-68
2023/01/12 02:37:04;;;;;;;3.35;1.10;;;18.20;68.30;;;;;;4560199;31;20142;-68
2023/01/12 02:39:41;;;;;;;3.40;1.13;;;18.20;68.30;;;;;;4545616;31;20150;-68
2023/01/12 02:45:46;;;;;;;2.85;1.17;;;18.20;68.30;;;;;;4535567;31;20170;-68
2023/01/12 02:48:27;;;;;;;3.83;1.17;;;18.20;68.30;;;;;;4548805;31;20135;-68
2023/01/12 02:51:00;;;;;;;3.70;1.30;;;18.20;68.30;;;;;;4560407;31;20220;-68
2023/01/12 02:53:52;;;;;;;4.90;1.48;;;18.20;68.40;;;;;;4547607;31;20142;-68
2023/01/12 02:56:24;;;;;;;4.07;1.55;;;18.20;68.30;;;;;;4560509;31;20130;-68
2023/01/12 02:58:54;;;;;;;2.85;1.20;;;18.20;68.40;;;;;;4548020;31;20119;-68
2023/01/12 03:01:22;;;;;;;3.80;1.40;;;18.10;68.40;;;;;;4552118;31;20186;-68
2023/01/12 03:03:49;;;;;;;3.72;1.08;;;18.20;68.40;;;;;;4541486;31;20261;-68
2023/01/12 03:06:16;;;;;;;3.08;1.23;;;18.10;68.30;;;;;;4519662;31;20195;-68
2023/01/12 03:08:43;;;;;;;3.72;1.05;;;18.10;68.40;;;;;;4556501;31;20122;-68
2023/01/12 03:11:12;;;;;;;5.30;1.20;;;18.10;68.30;;;;;;4547739;31;20281;-68
2023/01/12 03:13:43;;;;;;;2.08;0.90;;;18.10;68.30;;;;;;4539971;31;20166;-68
2023/01/12 03:16:14;;;;;;;4.38;1.42;;;18.10;68.30;;;;;;4553073;31;20143;-68
2023/01/12 03:19:12;;;;;;;3.13;1.00;;;18.10;68.30;;;;;;4547679;31;20158;-68
2023/01/12 03:21:46;;;;;;;4.05;1.10;;;18.10;68.30;;;;;;4519135;31;20135;-69
2023/01/12 03:24:20;;;;;;;3.25;1.10;;;18.10;68.40;;;;;;4547437;31;20123;-69
2023/01/12 03:26:49;;;;;;;2.20;0.98;;;18.10;68.30;;;;;;4559610;31;20127;-68
2023/01/12 03:29:28;;;;;;;4.43;1.10;;;18.00;68.30;;;;;;4548354;31;20096;-68
2023/01/12 03:31:55;;;;;;;5.00;1.60;;;18.10;68.30;;;;;;4558263;31;20136;-68
2023/01/12 03:34:21;;;;;;;3.53;1.00;;;18.00;68.30;;;;;;4548737;31;20127;-68
2023/01/12 03:37:31;;;;;;;3.38;1.15;;;18.00;68.30;;;;;;4543631;31;20127;-68
2023/01/12 03:40:10;;;;;;;3.13;1.10;;;18.00;68.20;;;;;;4505548;31;20127;-68
2023/01/12 03:42:36;;;;;;;;;;;18.00;68.30;;;;;;4549268;31;20142;-68
2023/01/12 03:45:21;;;;;;;2.97;1.08;;;18.00;68.30;;;;;;4557675;31;20011;-68
2023/01/12 03:47:56;;;;;;;3.83;1.20;;;18.00;68.30;;;;;;4557784;31;20281;-68
2023/01/12 03:50:27;;;;;;;2.67;1.00;;;18.00;68.30;;;;;;4548569;31;20135;-68
2023/01/12 03:52:55;;;;;;;3.17;1.00;;;18.00;68.30;;;;;;4539329;31;20619;-68
2023/01/12 03:55:22;;;;;;;3.65;1.10;;;18.00;68.40;;;;;;4558827;31;20577;-68
2023/01/12 03:57:50;;;;;;;3.55;0.82;;;18.00;68.40;;;;;;4532138;31;20124;-68
2023/01/12 04:00:19;;;;;;;3.50;1.08;;;18.00;68.40;;;;;;4558918;31;20135;-68
2023/01/12 04:02:45;;;;;;;2.90;1.30;;;18.00;68.30;;;;;;4532576;31;20142;-68
2023/01/12 04:05:13;;;;;;;3.35;1.08;;;18.00;68.30;;;;;;4557231;31;20141;-68
2023/01/12 04:07:39;;;;;;;2.55;1.10;;;18.00;68.30;;;;;;4549109;31;20147;-68
2023/01/12 04:10:06;;;;;;;3.13;1.15;;;17.90;68.30;;;;;;4549792;31;20182;-68
2023/01/12 04:12:32;;;;;;;4.38;1.10;;;18.00;68.30;;;;;;4557646;31;20646;-68
2023/01/12 04:14:58;;;;;;;2.92;1.00;;;17.90;68.30;;;;;;4533394;31;20603;-68
2023/01/12 04:17:26;;;;;;;3.45;1.20;;;17.90;68.30;;;;;;4556073;31;20146;-68
2023/01/12 04:19:52;;;;;;;3.05;1.10;;;17.90;68.30;;;;;;4534945;31;20177;-68
2023/01/12 04:25:03;;;;;;;2.50;1.10;;;17.90;68.30;;;;;;4550037;31;20586;-68
2023/01/12 04:27:29;;;;;;;3.05;1.00;;;17.90;68.30;;;;;;4553861;31;20147;-68
2023/01/12 04:29:55;;;;;;;3.70;0.88;;;17.90;68.30;;;;;;4551628;31;20126;-68
2023/01/12 04:32:21;;;;;;;2.05;0.85;;;17.90;68.30;;;;;;4537241;31;20120;-68
2023/01/12 04:34:47;;;;;;;2.75;1.10;;;17.90;68.30;;;;;;4549357;31;20182;-68
2023/01/12 04:37:13;;;;;;;3.03;1.00;;;17.90;68.30;;;;;;4551034;31;20130;-68
2023/01/12 04:39:39;;;;;;;3.42;1.17;;;17.90;68.30;;;;;;4553912;31;20107;-68
2023/01/12 04:42:59;;;;;;;3.28;1.20;;;17.90;68.30;;;;;;4549862;31;20086;-68
2023/01/12 04:44:50;;;;;;;3.13;0.90;;;17.80;68.20;;;;;;4552229;31;20132;-68
2023/01/12 04:47:16;;;;;;;2.20;1.00;;;17.80;68.30;;;;;;4550545;31;20134;-68
2023/01/12 04:49:42;;;;;;;3.60;0.88;;;17.80;68.30;;;;;;4525949;31;20123;-68
2023/01/12 04:52:07;;;;;;;3.38;1.13;;;17.80;68.20;;;;;;4543958;31;20135;-68
2023/01/12 04:54:33;;;;;;;4.32;1.35;;;17.80;68.20;;;;;;4531934;31;20185;-68
2023/01/12 04:56:59;;;;;;;2.92;0.90;;;17.80;68.20;;;;;;4529903;31;20189;-68
2023/01/12 04:59:25;;;;;;;3.05;1.13;;;17.80;68.20;;;;;;4543815;31;20084;-68
2023/01/12 05:01:50;;;;;;;3.67;1.13;;;17.80;68.20;;;;;;4552586;31;20604;-68
2023/01/12 05:04:16;;;;;;;4.20;1.17;;;17.80;68.30;;;;;;4540332;31;20516;-68
2023/01/12 05:06:42;;;;;;;3.22;1.20;;;17.80;68.30;;;;;;4543520;31;20124;-68
2023/01/12 05:11:52;;;;;;;2.97;1.00;;;17.80;68.30;;;;;;4561961;31;20276;-67
2023/01/12 05:14:18;;;;;;;2.13;1.00;;;17.80;68.30;;;;;;4543873;31;20119;-68
2023/01/12 05:16:44;;;;;;;3.40;1.00;;;17.70;68.20;;;;;;4562492;31;20277;-68
2023/01/12 05:19:10;;;;;;;2.05;1.00;;;17.80;68.30;;;;;;4541704;31;20142;-68
2023/01/12 05:21:36;;;;;;;3.53;1.15;;;17.80;68.30;;;;;;4562390;31;20151;-68
2023/01/12 05:24:02;;;;;;;2.35;1.00;;;17.80;68.20;;;;;;4558819;31;20153;-68
2023/01/12 05:26:28;;;;;;;3.38;1.05;;;17.80;68.20;;;;;;4562032;31;20092;-68
2023/01/12 05:28:54;;;;;;;3.25;1.27;;;17.70;68.20;;;;;;4546571;31;20174;-68
2023/01/12 05:31:20;;;;;;;3.35;0.93;;;17.70;68.20;;;;;;4541567;31;20147;-68
2023/01/12 05:33:48;;;;;;;3.00;0.98;;;17.70;68.20;;;;;;4559443;31;20199;-68
2023/01/12 05:36:15;;;;;;;2.97;1.00;;;17.70;68.20;;;;;;4558240;31;20166;-68
2023/01/12 05:38:42;;;;;;;2.05;1.10;;;17.70;68.30;;;;;;4543344;31;20198;-68
2023/01/12 05:41:10;;;;;;;2.78;0.80;;;17.70;68.20;;;;;;4560017;31;20173;-68
2023/01/12 05:43:53;;;;;;;3.28;1.00;;;17.70;68.20;;;;;;4561317;31;20146;-70
2023/01/12 05:46:23;;;;;;;2.47;0.98;;;17.70;68.20;;;;;;4542361;31;20091;-68
2023/01/12 05:48:51;;;;;;;2.13;1.05;;;17.70;68.30;;;;;;4557646;31;20707;-68
2023/01/12 05:51:17;;;;;;;2.55;1.08;;;17.70;68.30;;;;;;4540645;31;20234;-68
2023/01/12 05:53:43;;;;;;;2.53;1.00;;;17.70;68.30;;;;;;4539102;31;20131;-68
2023/01/12 05:56:18;;;;;;;2.95;0.98;;;17.60;68.20;;;;;;4561245;31;20138;-68
2023/01/12 05:58:58;;;;;;;2.40;0.95;;;17.70;68.30;;;;;;4560917;31;20119;-68
2023/01/12 06:01:25;;;;;;;2.50;0.98;;;17.60;69.00;;;;;;4534566;31;20145;-69
2023/01/12 06:03:53;;;;;;;2.20;0.82;;;17.60;68.20;;;;;;4546700;31;20316;-70
2023/01/12 06:06:20;;;;;;;1.88;0.93;;;17.60;68.20;;;;;;4549903;31;20186;-69
2023/01/12 06:08:47;;;;;;;2.90;1.00;;;17.60;68.30;;;;;;4549176;31;20188;-69
2023/01/12 06:13:59;;;;;;;2.13;0.90;;;17.60;68.20;;;;;;4560623;31;20592;-70
2023/01/12 06:16:26;;;;;;;2.17;0.75;;;17.60;68.20;;;;;;4560762;31;20103;-69
2023/01/12 06:18:53;;;;;;;2.25;0.80;;;17.60;68.30;;;;;;4557043;31;20511;-71
2023/01/12 06:21:23;;;;;;;2.83;1.00;;;17.60;68.20;;;;;;4560813;31;20157;-69
2023/01/12 06:23:51;;;;;;;2.90;1.08;;;17.60;68.30;;;;;;4559409;31;20155;-69
2023/01/12 06:26:16;;;;;;;1.92;0.90;;;17.60;68.20;;;;;;4538959;31;20128;-70
2023/01/12 06:28:42;;;;;;;1.80;0.70;;;17.60;68.20;;;;;;4530955;31;20135;-70
2023/01/12 06:31:11;;;;;;;1.95;0.85;;;17.60;68.20;;;;;;4560508;31;20100;-69
2023/01/12 06:33:36;;;;;;;2.75;1.00;;;17.60;68.20;;;;;;4540190;31;20107;-68
2023/01/12 06:36:03;;;;;;;2.03;0.80;;;17.60;68.30;;;;;;4549033;31;20274;-69
2023/01/12 06:38:31;;;;;;;2.50;0.88;;;17.50;68.20;;;;;;4551920;31;20143;-69
2023/01/12 06:42:27;;;;;;;1.67;0.77;;;17.50;68.20;;;;;;4551798;31;20145;-68
2023/01/12 06:43:54;;;;;;;1.85;0.95;;;17.60;68.50;;;;;;4553244;31;20134;-68
2023/01/12 06:46:19;;;;;;;2.03;0.70;;;17.50;68.30;;;;;;4536860;31;20138;-68
2023/01/12 06:48:45;;;;;;;2.53;0.82;;;17.50;68.20;;;;;;4550776;31;20262;-68
2023/01/12 06:51:11;;;;;;;1.48;0.60;;;17.50;68.20;;;;;;4553101;31;20130;-68
2023/01/12 06:53:38;;;;;;;3.13;0.93;;;17.50;68.30;;;;;;4549005;31;20312;-68
2023/01/12 06:56:04;;;;;;;1.05;0.50;;;17.50;68.20;;;;;;4540237;31;20135;-68
2023/01/12 06:58:30;;;;;;;2.67;1.05;;;17.50;68.20;;;;;;4534725;31;20146;-68
2023/01/12 07:01:03;;;;;;;1.88;0.77;;;17.50;68.20;;;;;;4553646;31;20139;-68
2023/01/12 07:03:29;;;;;;;2.53;0.85;;;17.50;68.20;;;;;;4533461;31;20083;-68
2023/01/12 07:05:59;;;;;;;1.52;0.63;;;17.50;68.20;;;;;;4550568;31;20140;-70
2023/01/12 07:08:25;;;;;;;1.80;0.50;;;17.50;68.20;;;;;;4559657;31;20139;-70
2023/01/12 07:10:52;;;;;;;1.27;0.70;;;17.50;68.20;;;;;;4559677;31;20760;-69
2023/01/12 07:13:18;;;;;;;2.40;1.05;;;17.50;68.00;;;;;;4541023;31;20116;-69
2023/01/12 07:15:44;;;;;;;1.75;0.73;;;17.50;68.00;;;;;;4533319;31;20197;-68
2023/01/12 07:18:10;;;;;;;1.80;0.80;;;17.60;68.00;;;;;;4554966;31;20523;-68
2023/01/12 07:20:35;;;;;;;1.10;0.63;;;17.60;67.90;;;;;;4543593;31;20071;-68
2023/01/12 07:23:02;;;;;;;1.00;0.52;;;17.60;67.70;;;;;;4553236;31;20590;-68
2023/01/12 07:25:28;;;;;;;1.70;0.70;;;17.60;67.60;;;;;;4543883;31;20540;-68
2023/01/12 07:27:56;;;;;;;1.40;0.47;;;17.60;67.50;;;;;;4554296;31;20585;-68
2023/01/12 07:30:23;;;;;;;2.08;0.63;;;17.60;67.40;;;;;;4559385;31;20139;-68
2023/01/12 07:32:50;;;;;;;2.65;0.98;;;17.60;67.40;;;;;;4558811;31;20127;-68
2023/01/12 07:35:16;;;;;;;1.60;0.50;;;17.70;67.30;;;;;;4558466;31;20123;-68
2023/01/12 07:37:49;;;;;;;1.45;0.50;;;17.70;67.20;;;;;;4546409;31;20088;-68
2023/01/12 07:40:15;;;;;;;1.60;0.75;;;17.70;67.10;;;;;;4556885;31;20295;-68
2023/01/12 07:42:41;;;;;;;3.20;0.70;;;17.70;67.10;;;;;;4546703;31;20135;-68
2023/01/12 07:45:07;;;;;;;1.98;0.88;;;17.70;67.00;;;;;;4555783;31;20120;-69
2023/01/12 07:47:34;;;;;;;2.03;0.80;;;17.70;67.10;;;;;;4546457;31;20166;-69
2023/01/12 07:49:59;;;;;;;4.20;0.68;;;17.70;67.30;;;;;;4543018;31;20784;-68
2023/01/12 07:52:25;;;;;;;2.78;0.90;;;17.70;67.30;;;;;;4559126;31;20245;-68
2023/01/12 07:54:51;;;;;;;2.67;0.63;;;17.80;67.30;;;;;;4552193;31;20120;-67
2023/01/12 07:57:17;;;;;;;1.33;0.80;;;17.80;67.10;;;;;;4554779;31;20116;-67
2023/01/12 07:59:43;;;;;;;2.30;0.70;;;17.90;66.80;;;;;;4558193;31;20123;-68
2023/01/12 08:02:15;;;;;;;4.10;0.68;;;18.10;66.50;;;;;;4538395;31;20138;-68
2023/01/12 08:04:44;;;;;;;2.13;0.68;;;18.20;67.00;;;;;;4558922;31;20139;-68
2023/01/12 08:07:11;;;;;;;3.28;0.98;;;18.40;65.70;;;;;;4552977;31;20276;-68
2023/01/12 08:09:37;;;;;;;2.90;0.90;;;18.50;65.30;;;;;;4550439;31;20145;-68
2023/01/12 08:12:04;;;;;;;1.73;0.88;;;18.70;65.00;;;;;;4547792;31;20080;-68
2023/01/12 08:14:36;;;;;;;2.30;0.80;;;18.80;64.50;;;;;;4557202;31;20265;-68
2023/01/12 08:17:04;;;;;;;2.47;0.70;;;19.00;64.20;;;;;;4558578;31;20139;-69
2023/01/12 08:20:02;;;;;;;2.83;0.93;;;19.10;63.80;;;;;;4546172;31;20223;-68
2023/01/12 08:22:35;;;;;;;5.28;1.00;;;19.30;63.60;;;;;;4547211;31;20142;-69
2023/01/12 08:25:16;;;;;;;3.15;0.75;;;19.40;63.30;;;;;;4559110;31;20084;-68
2023/01/12 08:27:46;;;;;;;2.47;0.95;;;19.50;63.10;;;;;;4546254;31;20599;-68
2023/01/12 08:30:18;;;;;;;2.67;1.00;;;19.50;62.90;;;;;;4559298;31;20281;-68
2023/01/12 08:32:44;;;;;;;3.17;1.10;;;19.50;62.80;;;;;;4546074;31;20267;-67
2023/01/12 08:35:12;;;;;;;4.40;1.25;;;19.50;62.70;;;;;;4544182;31;20131;-67
2023/01/12 08:37:38;;;;;;;3.67;1.08;;;19.60;62.70;;;;;;4547193;31;20080;-68
2023/01/12 08:40:05;;;;;;;3.80;1.20;;;19.60;62.70;;;;;;4557245;31;20108;-68
2023/01/12 08:42:31;;;;;;;3.30;1.10;;;19.60;62.60;;;;;;4556269;31;20181;-68
2023/01/12 08:44:56;;;;;;;3.90;1.17;;;19.60;62.60;;;;;;4561464;31;20256;-68
2023/01/12 08:47:26;;;;;;;2.90;1.17;;;19.60;62.60;;;;;;4546758;31;20138;-68
2023/01/12 08:49:52;;;;;;;3.78;1.17;;;19.60;62.50;;;;;;4561471;31;20288;-68
2023/01/12 08:52:18;;;;;;;3.90;1.20;;;19.70;62.60;;;;;;4543106;31;20123;-68
2023/01/12 08:54:44;;;;;;;3.58;1.05;;;19.70;62.50;;;;;;4548680;31;20068;-68
2023/01/12 08:57:10;;;;;;;5.35;1.45;;;19.70;62.50;;;;;;4560140;31;20135;-68
2023/01/12 08:59:36;;;;;;;4.03;1.30;;;19.70;62.50;;;;;;4547170;31;20130;-68
2023/01/12 09:02:03;;;;;;;4.53;1.17;;;19.70;62.50;;;;;;4561047;31;20111;-68
2023/01/12 09:04:29;;;;;;;3.10;1.23;;;19.70;62.50;;;;;;4545220;31;20134;-68
2023/01/12 09:06:54;;;;;;;7.28;1.42;;;19.70;62.40;;;;;;4552028;31;20138;-67
2023/01/12 09:09:21;;;;;;;6.47;1.50;;;19.70;62.30;;;;;;4533703;31;20174;-68
2023/01/12 09:11:48;;;;;;;5.43;1.30;;;19.70;62.30;;;;;;4546560;31;20142;-67
2023/01/12 09:14:15;;;;;;;4.63;1.83;;;19.80;62.20;;;;;;4541032;31;20123;-67
2023/01/12 09:16:41;;;;;;;4.95;1.60;;;19.80;62.20;;;;;;4548243;31;20127;-68
2023/01/12 09:19:08;;;;;;;4.68;1.42;;;19.80;62.20;;;;;;4553019;31;20153;-66
2023/01/12 09:21:37;;;;;;;3.88;1.15;;;19.80;62.20;;;;;;4555010;31;20145;-67
2023/01/12 09:24:03;;;;;;;5.68;1.48;;;19.80;62.10;;;;;;4561159;31;20135;-67
2023/01/12 09:26:34;;;;;;;4.38;1.48;;;19.80;62.20;;;;;;4546476;31;20154;-67
2023/01/12 09:29:03;;;;;;;5.25;1.52;;;19.80;62.30;;;;;;4558957;31;20100;-67
2023/01/12 09:31:30;;;;;;;4.50;1.40;;;19.80;62.40;;;;;;4553985;31;20235;-67
2023/01/12 09:33:56;;;;;;;6.82;1.85;;;19.80;62.50;;;;;;4550383;31;20513;-67
2023/01/12 09:36:31;;;;;;;4.70;1.45;;;19.80;62.50;;;;;;4554748;31;20154;-68
2023/01/12 09:38:57;;;;;;;4.70;1.42;;;19.80;62.60;;;;;;4543181;31;20152;-68
2023/01/12 09:47:28;;;;;;;3.65;1.48;;;19.80;62.80;;;;;;4557735;31;20257;-69
2023/01/12 09:50:09;;;;;;;3.35;1.20;;;19.80;62.80;;;;;;4540831;31;20135;-68
2023/01/12 09:52:44;;;;;;;4.53;1.30;;;19.80;62.80;;;;;;4551359;31;20241;-70
2023/01/12 09:55:15;;;;;;;4.63;1.48;;;19.80;62.80;;;;;;4548767;31;20159;-69
2023/01/12 09:57:53;;;;;;;5.00;1.33;;;19.80;62.80;;;;;;4540125;31;20143;-68
2023/01/12 10:00:20;;;;;;;6.05;1.20;;;19.80;62.80;;;;;;4546775;31;20599;-68
2023/01/12 10:02:53;;;;;;;4.82;1.75;;;19.80;62.90;;;;;;4532427;31;20107;-67
2023/01/12 10:05:42;;;;;;;6.05;1.33;;;19.80;62.90;;;;;;4536913;31;20139;-68
2023/01/12 10:08:31;;;;;;;6.18;1.38;;;19.80;62.90;;;;;;4547449;31;20548;-68
2023/01/12 10:11:20;;;;;;;5.50;1.70;;;19.80;63.00;;;;;;4546229;31;20132;-68
2023/01/12 10:14:08;;;;;;;4.82;1.58;;;19.80;62.90;;;;;;4544254;31;20144;-68
2023/01/12 10:16:43;;;;;;;4.75;1.58;;;19.80;62.90;;;;;;4550327;31;20145;-67
2023/01/12 10:19:39;;;;;;;5.25;1.60;;;19.80;62.90;;;;;;4546804;31;20212;-67
2023/01/12 10:22:43;;;;;;;8.13;1.80;;;19.80;62.90;;;;;;4541853;31;20309;-68
2023/01/12 10:25:35;;;;;;;5.22;1.73;;;19.80;62.90;;;;;;4554531;31;20188;-66
2023/01/12 10:28:24;;;;;;;6.88;1.33;;;19.80;62.90;;;;;;4559981;31;20149;-67
2023/01/12 10:30:50;;;;;;;4.35;1.75;;;19.80;63.00;;;;;;4560655;31;20119;-67
2023/01/12 10:33:22;;;;;;;5.82;1.52;;;19.90;63.00;;;;;;4561520;31;20076;-67
2023/01/12 10:35:53;;;;;;;3.13;1.27;;;19.90;63.00;;;;;;4538932;31;20135;-68
2023/01/12 10:38:25;;;;;;;5.95;1.73;;;19.90;63.00;;;;;;4550857;31;20216;-69
2023/01/12 10:41:09;;;;;;;5.50;1.60;;;19.90;63.10;;;;;;4552819;31;20119;-68
2023/01/12 10:43:35;;;;;;;;;;;19.90;63.00;;;;;;4552510;31;20143;-69
2023/01/12 10:46:12;;;;;;;4.30;1.48;;;19.80;63.00;;;;;;4553568;31;20484;-68
2023/01/12 10:48:46;;;;;;;5.32;1.65;;;19.80;63.00;;;;;;4550309;31;20127;-67
2023/01/12 10:51:30;;;;;;;7.22;1.60;;;19.80;63.00;;;;;;4553386;31;20138;-67
2023/01/12 10:53:58;;;;;;;15.13;1.63;;;19.90;63.10;;;;;;4551448;31;20147;-67
2023/01/12 10:56:38;;;;;;;4.40;1.65;;;19.90;63.10;;;;;;4554506;31;20261;-68
2023/01/12 10:59:18;;;;;;;4.03;1.55;;;19.80;63.00;;;;;;4554409;31;20217;-68
2023/01/12 11:01:46;;;;;;;4.28;1.33;;;19.90;63.10;;;;;;4553166;31;20190;-67
2023/01/12 11:04:23;;;;;;;4.45;1.77;;;19.80;63.10;;;;;;4543162;31;20111;-67
2023/01/12 11:07:07;;;;;;;5.28;1.40;;;19.90;63.20;;;;;;4558721;31;20281;-67
2023/01/12 11:09:33;;;;;;;8.10;1.52;;;19.90;63.20;;;;;;4560959;31;20127;-67
2023/01/12 11:12:01;;;;;;;3.60;1.40;;;19.90;64.10;;;;;;4556870;31;20072;-67
2023/01/12 11:14:31;;;;;;;5.15;1.45;;;19.90;63.20;;;;;;4545309;31;20491;-66
2023/01/12 11:17:55;;;;;;;4.65;1.38;;;19.90;63.20;;;;;;4541686;31;20158;-67
2023/01/12 11:20:53;;;;;;;5.47;1.45;;;19.90;63.30;;;;;;4526208;31;20230;-68
2023/01/12 11:23:27;;;;;;;5.38;1.45;;;19.90;63.30;;;;;;4506370;31;20164;-68
2023/01/12 11:25:55;;;;;;;6.40;1.70;;;19.90;63.40;;;;;;4544339;31;20199;-67
2023/01/12 11:28:29;;;;;;;4.63;1.20;;;19.90;63.50;;;;;;4547338;31;20647;-66
2023/01/12 11:31:06;;;;;;;5.63;1.83;;;19.90;63.50;;;;;;4557669;31;20546;-66
2023/01/12 11:33:48;;;;;;;5.40;1.45;;;19.90;63.60;;;;;;4553866;31;20143;-67
2023/01/12 11:36:19;;;;;;;5.68;1.55;;;19.90;63.60;;;;;;4547934;31;20149;-67
2023/01/12 11:38:52;;;;;;;5.22;1.48;;;19.90;63.60;;;;;;4550866;31;20139;-66
2023/01/12 11:41:39;;;;;;;3.60;1.33;;;19.90;63.70;;;;;;4555499;31;20135;-67
2023/01/12 11:44:25;;;;;;;6.07;1.42;;;19.90;63.70;;;;;;4549825;31;20143;-66
2023/01/12 11:46:55;;;;;;;4.68;1.30;;;19.80;63.60;;;;;;4545969;31;20123;-67
2023/01/12 11:49:32;;;;;;;5.25;1.20;;;19.80;63.60;;;;;;4549461;31;20543;-67
2023/01/12 11:51:59;;;;;;;4.63;1.55;;;19.90;63.70;;;;;;4550175;31;20258;-67
2023/01/12 11:54:28;;;;;;;6.30;1.67;;;19.90;63.70;;;;;;4557201;31;20164;-67
2023/01/12 11:57:23;;;;;;;3.95;1.20;;;19.90;63.70;;;;;;4546884;31;20143;-67
2023/01/12 12:00:20;;;;;;;6.53;1.40;;;19.90;63.70;;;;;;4549513;31;20127;-67
2023/01/12 12:03:06;;;;;;;6.25;1.33;;;19.90;63.70;;;;;;4555993;31;20391;-67
2023/01/12 12:06:12;;;;;;;2.88;1.25;;;19.90;63.70;;;;;;4547623;31;20152;-66
2023/01/12 12:08:56;;;;;;;3.55;1.00;;;19.90;63.70;;;;;;4547887;31;20135;-67
2023/01/12 12:11:44;;;;;;;5.38;1.52;;;19.90;63.70;;;;;;4549078;31;20681;-66
2023/01/12 12:14:34;;;;;;;5.07;1.50;;;19.90;63.70;;;;;;4547175;31;20170;-65
2023/01/12 12:17:11;;;;;;;3.33;1.15;;;19.90;63.70;;;;;;4547581;31;20155;-66
2023/01/12 12:19:59;;;;;;;4.82;1.60;;;20.00;63.80;;;;;;4557765;31;20207;-67
2023/01/12 12:22:58;;;;;;;5.10;1.42;;;20.00;63.80;;;;;;4548582;31;20131;-66
2023/01/12 12:25:32;;;;;;;4.15;1.30;;;20.00;63.80;;;;;;4546186;31;20721;-67
2023/01/12 12:28:33;;;;;;;7.95;1.73;;;20.00;63.80;;;;;;4545671;31;20123;-67
2023/01/12 12:31:15;;;;;;;4.65;1.17;;;19.90;63.70;;;;;;4545962;31;20202;-68
2023/01/12 12:33:44;;;;;;;4.50;1.42;;;20.00;63.70;;;;;;4549207;31;20127;-69
2023/01/12 12:36:47;;;;;;;3.83;1.25;;;20.00;63.70;;;;;;4554456;31;20135;-68
2023/01/12 12:39:34;;;;;;;4.55;1.25;;;20.00;63.60;;;;;;4548881;31;20112;-69
2023/01/12 12:45:21;;;;;;;3.25;1.30;;;20.00;63.60;;;;;;4558248;31;20186;-70
2023/01/12 12:48:10;;;;;;;6.60;1.42;;;20.00;63.50;;;;;;4539127;31;20107;-69
2023/01/12 12:50:45;;;;;;;4.88;1.50;;;20.00;63.50;;;;;;4559369;31;20080;-69
2023/01/12 12:53:11;;;;;;;3.97;1.20;;;20.00;63.40;;;;;;4559850;31;20134;-68
2023/01/12 12:55:37;;;;;;;3.83;1.10;;;20.00;63.40;;;;;;4559152;31;20813;-67
2023/01/12 12:58:24;;;;;;;5.82;1.42;;;20.00;63.40;;;;;;4545207;31;20490;-66
2023/01/12 13:00:53;;;;;;;6.72;1.42;;;20.00;63.30;;;;;;4556949;31;20158;-68
2023/01/12 13:03:40;;;;;;;3.63;1.00;;;20.00;63.30;;;;;;4547409;31;20076;-67
2023/01/12 13:06:21;;;;;;;6.30;1.50;;;20.00;63.30;;;;;;4531601;31;20131;-67
2023/01/12 13:08:58;;;;;;;3.22;1.38;;;20.00;63.30;;;;;;4544256;31;20301;-67
2023/01/12 13:11:52;;;;;;;4.05;1.20;;;20.00;63.20;;;;;;4547708;31;20166;-67
2023/01/12 13:14:38;;;;;;;3.05;1.33;;;20.00;63.30;;;;;;4544881;31;20135;-67
2023/01/12 13:17:19;;;;;;;3.88;1.42;;;20.00;63.20;;;;;;4546879;31;20128;-68
2023/01/12 13:19:47;;;;;;;4.07;1.55;;;20.00;63.20;;;;;;4558341;31;20124;-67
2023/01/12 13:22:40;;;;;;;5.18;1.50;;;20.10;63.20;;;;;;4547976;31;20143;-67
2023/01/12 13:25:15;;;;;;;7.35;1.40;;;20.10;63.20;;;;;;4549367;31;20262;-67
2023/01/12 13:27:55;;;;;;;5.25;1.13;;;20.10;63.20;;;;;;4532898;31;20166;-67
2023/01/12 13:30:30;;;;;;;5.97;1.50;;;20.10;63.30;;;;;;4548036;31;20127;-67
2023/01/12 13:33:22;;;;;;;3.85;1.10;;;20.10;63.20;;;;;;4545957;31;20162;-67
2023/01/12 13:35:48;;;;;;;3.97;1.10;;;20.10;63.20;;;;;;4544786;31;20143;-67
2023/01/12 13:38:22;;;;;;;3.72;1.02;;;20.10;63.20;;;;;;4548260;31;20268;-67
2023/01/12 13:40:48;;;;;;;3.90;1.25;;;20.10;63.20;;;;;;4545531;31;20282;-67
2023/01/12 13:43:26;;;;;;;2.50;0.95;;;20.10;63.30;;;;;;4545837;31;20206;-67
2023/01/12 13:46:05;;;;;;;3.80;1.30;;;20.10;63.30;;;;;;4530598;31;20178;-67
2023/01/12 13:48:34;;;;;;;3.35;1.15;;;20.10;63.30;;;;;;4548624;31;20727;-67